createdAt,value
2023-03-10T00:02:49.747Z,0.49
2023-03-10T00:07:52.481Z,0.48
2023-03-10T00:12:56.661Z,0.47
2023-03-10T00:17:59.394Z,0.45
2023-03-10T00:23:02.098Z,0.44
2023-03-10T00:28:04.878Z,0.43
2023-03-10T00:33:07.657Z,0.44
2023-03-10T00:38:10.369Z,0.43
2023-03-10T00:43:13.101Z,0.40
2023-03-10T00:48:16.788Z,0.40
2023-03-10T00:53:19.749Z,0.38
2023-03-10T00:58:22.465Z,0.36
2023-03-10T01:03:27.511Z,0.32
2023-03-10T01:08:30.242Z,0.31
2023-03-10T01:13:33.401Z,0.29
2023-03-10T01:18:37.881Z,0.26
2023-03-10T01:23:40.619Z,0.24
2023-03-10T01:28:43.422Z,0.23
2023-03-10T01:33:46.884Z,0.20
2023-03-10T01:38:49.764Z,0.18
2023-03-10T01:43:55.442Z,0.16
2023-03-10T01:49:04.903Z,1.67
2023-03-10T01:54:13.650Z,5.53
2023-03-10T01:59:17.021Z,6.31
2023-03-10T02:04:28.129Z,3.96
2023-03-10T02:09:33.902Z,2.57
2023-03-10T02:14:37.611Z,1.77
2023-03-10T02:20:02.623Z,1.21
2023-03-10T02:25:05.405Z,0.79
2023-03-10T02:30:26.133Z,0.53
2023-03-10T02:35:29.311Z,0.32
2023-03-10T02:40:45.333Z,2.53
2023-03-10T02:45:50.302Z,5.91
2023-03-10T02:50:55.218Z,4.46
2023-03-10T02:55:59.822Z,2.59
2023-03-10T03:01:06.661Z,1.56
2023-03-10T03:06:10.389Z,0.94
2023-03-10T03:11:14.222Z,0.54
2023-03-10T03:16:17.014Z,0.56
2023-03-10T03:21:21.373Z,4.01
2023-03-10T03:26:26.927Z,6.52
2023-03-10T03:31:29.691Z,5.08
2023-03-10T03:36:33.769Z,3.10
2023-03-10T03:41:36.581Z,1.97
2023-03-10T03:46:39.328Z,1.21
2023-03-10T03:51:42.030Z,0.67
2023-03-10T03:56:44.783Z,1.75
2023-03-10T04:01:47.480Z,5.44
2023-03-10T04:06:50.216Z,6.23
2023-03-10T04:11:53.461Z,3.78
2023-03-10T04:16:56.198Z,2.21
2023-03-10T04:21:58.931Z,1.27
2023-03-10T04:27:02.041Z,0.66
2023-03-10T04:32:06.051Z,1.85
2023-03-10T04:37:08.970Z,5.37
2023-03-10T04:42:11.703Z,5.97
2023-03-10T04:47:14.667Z,3.50
2023-03-10T04:52:17.382Z,2.04
2023-03-10T04:57:20.319Z,1.17
2023-03-10T05:02:23.037Z,1.01
2023-03-10T05:07:25.812Z,4.35
2023-03-10T05:12:28.515Z,4.24
2023-03-10T05:17:31.286Z,2.27
2023-03-10T05:22:34.026Z,1.17
2023-03-10T05:27:39.420Z,2.05
2023-03-10T05:32:44.003Z,5.44
2023-03-10T05:37:46.884Z,5.07
2023-03-10T05:42:50.968Z,2.83
2023-03-10T05:47:53.663Z,1.51
2023-03-10T05:52:58.543Z,3.16
2023-03-10T05:58:01.339Z,6.12
2023-03-10T06:03:04.619Z,5.23
2023-03-10T06:08:07.444Z,2.94
2023-03-10T06:13:10.160Z,1.64
2023-03-10T06:18:12.868Z,2.35
2023-03-10T06:23:18.537Z,5.70
2023-03-10T06:28:21.425Z,5.80
2023-03-10T06:33:25.488Z,3.24
2023-03-10T06:38:28.533Z,2.06
2023-03-10T06:43:33.964Z,4.72
2023-03-10T06:48:38.071Z,6.98
2023-03-10T06:53:44.033Z,6.57
2023-03-10T06:58:48.557Z,3.82
2023-03-10T07:03:51.964Z,2.24
2023-03-10T07:08:55.196Z,3.82
2023-03-10T07:13:58.551Z,6.84
2023-03-10T07:19:01.840Z,6.69
2023-03-10T07:24:05.152Z,4.18
2023-03-10T07:29:10.408Z,2.60
2023-03-10T07:34:13.987Z,3.36
2023-03-10T07:39:16.843Z,6.58
2023-03-10T07:44:20.695Z,4.78
2023-03-10T07:49:23.470Z,2.95
2023-03-10T07:54:26.225Z,3.58
2023-03-10T07:59:29.840Z,6.03
2023-03-10T08:04:32.985Z,4.22
2023-03-10T08:09:37.286Z,2.72
2023-03-10T08:14:42.459Z,4.14
2023-03-10T08:19:45.463Z,7.13
2023-03-10T08:24:48.420Z,7.12
2023-03-10T08:38:55.498Z,4.66
2023-03-10T08:44:00.336Z,5.60
2023-03-10T08:54:51.495Z,4.51
2023-03-10T08:59:54.373Z,7.70
2023-03-10T09:04:58.894Z,7.36
2023-03-10T09:10:02.041Z,4.63
2023-03-10T09:15:05.483Z,3.49
2023-03-10T09:20:11.287Z,6.17
2023-03-10T09:25:14.256Z,6.45
2023-03-10T09:30:19.834Z,4.13
2023-03-10T09:35:24.019Z,5.09
2023-03-10T09:40:27.782Z,6.81
2023-03-10T09:45:32.743Z,4.73
2023-03-10T09:50:51.076Z,3.71
2023-03-10T09:55:56.427Z,6.22
2023-03-10T10:01:00.954Z,7.60
2023-03-10T10:06:07.015Z,5.51
2023-03-10T10:11:15.338Z,4.22
2023-03-10T10:16:41.563Z,4.90
2023-03-10T10:22:00.023Z,8.09
2023-03-10T10:27:02.944Z,7.29
2023-03-10T10:32:14.357Z,5.18
2023-03-10T10:37:43.153Z,4.05
2023-03-10T10:42:54.023Z,5.19
2023-03-10T10:47:59.511Z,7.14
2023-03-10T10:53:37.748Z,5.30
2023-03-10T10:58:46.687Z,3.95
2023-03-10T11:04:04.905Z,4.94
2023-03-10T11:09:14.160Z,8.42
2023-03-10T11:14:49.894Z,8.65
2023-03-10T11:20:17.852Z,6.02
2023-03-10T11:25:44.344Z,4.59
2023-03-10T11:31:13.826Z,3.87
2023-03-10T11:36:22.188Z,5.50
2023-03-10T11:41:30.905Z,8.78
2023-03-10T11:46:47.315Z,7.79
2023-03-10T11:51:57.153Z,5.75
2023-03-10T11:57:03.677Z,4.70
2023-03-10T12:02:17.093Z,5.77
2023-03-10T12:07:24.279Z,9.03
2023-03-10T12:12:38.233Z,7.68
2023-03-10T12:17:42.283Z,5.86
2023-03-10T12:22:51.533Z,4.77
2023-03-10T12:28:15.816Z,5.69
2023-03-10T12:33:30.373Z,9.04
2023-03-10T12:38:43.426Z,7.66
2023-03-10T12:43:56.729Z,6.22
2023-03-10T12:49:22.911Z,5.41
2023-03-10T12:54:28.410Z,4.88
2023-03-10T12:59:42.306Z,4.55
2023-03-10T13:04:45.493Z,4.51
2023-03-10T13:09:50.107Z,7.54
2023-03-10T13:14:57.205Z,9.15
2023-03-10T13:20:09.284Z,7.17
2023-03-10T13:25:14.861Z,5.88
2023-03-10T13:30:21.425Z,5.17
2023-03-10T13:35:38.174Z,4.64
2023-03-10T13:40:51.839Z,4.20
2023-03-10T13:46:02.431Z,5.30
2023-03-10T13:51:08.180Z,9.00
2023-03-10T13:56:28.621Z,9.37
2023-03-10T14:01:35.030Z,7.23
2023-03-10T14:06:38.248Z,6.11
2023-03-10T14:11:44.997Z,5.37
2023-03-10T14:16:49.754Z,4.85
2023-03-10T14:22:01.658Z,4.49
2023-03-10T14:27:10.420Z,4.21
2023-03-10T14:32:13.809Z,5.46
2023-03-10T14:37:16.758Z,9.09
2023-03-10T14:42:26.964Z,9.73
2023-03-10T14:47:29.979Z,7.63
2023-03-10T14:52:32.996Z,6.37
2023-03-10T14:57:36.974Z,5.58
2023-03-10T15:02:39.805Z,4.98
2023-03-10T15:07:44.722Z,4.52
2023-03-10T15:12:50.180Z,5.51
2023-03-10T15:17:53.304Z,9.08
2023-03-10T15:22:56.228Z,9.52
2023-03-10T15:27:58.992Z,7.40
2023-03-10T15:33:02.522Z,6.14
2023-03-10T15:38:05.261Z,5.30
2023-03-10T15:43:08.888Z,4.65
2023-03-10T15:48:11.680Z,5.42
2023-03-10T15:53:15.154Z,8.91
2023-03-10T15:58:18.733Z,9.31
2023-03-10T16:03:21.464Z,7.13
2023-03-10T16:08:24.402Z,5.80
2023-03-10T16:13:27.201Z,5.00
2023-03-10T16:18:30.066Z,4.37
2023-03-10T16:23:34.253Z,5.21
2023-03-10T16:28:39.854Z,8.66
2023-03-10T16:33:43.122Z,9.19
2023-03-10T16:38:46.594Z,6.96
2023-03-10T16:43:49.771Z,5.62
2023-03-10T16:48:54.570Z,4.80
2023-03-10T16:53:59.929Z,5.51
2023-03-10T16:59:02.673Z,8.88
2023-03-10T17:04:05.449Z,9.15
2023-03-10T17:09:10.917Z,6.91
2023-03-10T17:14:15.988Z,5.64
2023-03-10T17:19:21.382Z,4.81
2023-03-10T17:24:24.930Z,5.46
2023-03-10T17:29:28.026Z,8.86
2023-03-10T17:34:30.896Z,9.17
2023-03-10T17:39:35.340Z,6.94
2023-03-10T17:44:38.325Z,5.62
2023-03-10T17:49:41.160Z,4.76
2023-03-10T17:54:43.946Z,5.49
2023-03-10T17:59:46.643Z,8.86
2023-03-10T18:04:49.448Z,9.31
2023-03-10T18:09:52.487Z,7.06
2023-03-10T18:14:55.260Z,5.71
2023-03-10T18:19:58.695Z,4.85
2023-03-10T18:25:01.697Z,5.90
2023-03-10T18:30:06.915Z,9.23
2023-03-10T18:35:11.390Z,8.88
2023-03-10T18:40:16.256Z,6.70
2023-03-10T18:45:19.058Z,5.50
2023-03-10T18:50:21.876Z,4.67
2023-03-10T18:55:24.646Z,5.35
2023-03-10T19:00:27.762Z,8.73
2023-03-10T19:05:30.904Z,9.22
2023-03-10T19:10:33.967Z,6.98
2023-03-10T19:15:37.813Z,5.65
2023-03-10T19:20:40.631Z,4.80
2023-03-10T19:25:43.729Z,5.62
2023-03-10T19:30:46.463Z,9.00
2023-03-10T19:35:50.431Z,9.33
2023-03-10T19:40:53.189Z,7.04
2023-03-10T19:46:03.984Z,5.65
2023-03-10T19:51:07.686Z,4.74
2023-03-10T19:56:10.872Z,5.43
2023-03-10T20:01:15.943Z,8.84
2023-03-10T20:06:19.014Z,9.19
2023-03-10T20:11:21.861Z,6.92
2023-03-10T20:16:27.802Z,5.59
2023-03-10T20:21:31.185Z,4.76
2023-03-10T20:26:34.884Z,5.51
2023-03-10T20:31:37.681Z,8.94
2023-03-10T20:36:40.464Z,9.34
2023-03-10T20:41:44.987Z,7.05
2023-03-10T20:46:47.987Z,5.61
2023-03-10T20:51:50.890Z,4.75
2023-03-10T20:56:54.171Z,5.58
2023-03-10T21:01:56.880Z,9.00
2023-03-10T21:06:59.765Z,9.09
2023-03-10T21:12:03.383Z,6.82
2023-03-10T21:17:07.343Z,5.53
2023-03-10T21:22:10.543Z,4.70
2023-03-10T21:27:13.335Z,5.56
2023-03-10T21:32:16.065Z,8.94
2023-03-10T21:37:19.237Z,8.96
2023-03-10T21:42:22.034Z,6.67
2023-03-10T21:47:24.744Z,5.36
2023-03-10T21:52:27.638Z,4.53
2023-03-10T21:57:30.370Z,5.43
2023-03-10T22:02:35.677Z,8.89
2023-03-10T22:07:39.420Z,9.29
2023-03-10T22:12:42.224Z,6.96
2023-03-10T22:17:46.335Z,5.55
2023-03-10T22:22:49.368Z,4.69
2023-03-10T22:27:54.577Z,5.37
2023-03-10T22:32:57.834Z,8.83
2023-03-10T22:38:00.580Z,9.28
2023-03-10T22:43:03.463Z,7.01
2023-03-10T22:48:06.596Z,5.65
2023-03-10T22:53:15.166Z,4.80
2023-03-10T22:58:17.924Z,5.68
2023-03-10T23:03:20.871Z,9.07
2023-03-10T23:08:23.992Z,9.30
2023-03-10T23:13:26.793Z,7.00
2023-03-10T23:18:29.596Z,5.64
2023-03-10T23:23:33.832Z,4.80
2023-03-10T23:28:36.825Z,5.61
2023-03-10T23:33:39.642Z,8.95
2023-03-10T23:38:42.451Z,9.32
2023-03-10T23:43:45.183Z,7.05
2023-03-10T23:48:51.277Z,5.65
2023-03-10T23:53:54.004Z,4.77
2023-03-10T23:58:58.909Z,5.52
